Time;durP1;ratioP1;P1;durP2;ratioP2;P2;SDS_P1;SDS_P2;PMS_P1;PMS_P2;Temp;Humidity;BMP_temperature;BMP_pressure;BME280_temperature;BME280_humidity;BME280_pressure;Samples;Min_cycle;Max_cycle;Signal;HPM_P1;HPM_P2
2022/02/15 00:01:48;;;;;;;4.70;4.30;;;-2.80;99.90;-3.20;96163.00;;;;5120774;28;20431;-81
2022/02/15 00:04:17;;;;;;;4.80;4.27;;;-3.00;99.90;-2.80;96169.00;;;;5133817;28;20459;-82
2022/02/15 00:06:46;;;;;;;9.20;4.80;;;-2.90;99.90;-2.60;96165.00;;;;5133248;28;20427;-78
2022/02/15 00:09:15;;;;;;;6.47;5.03;;;-2.90;99.90;-2.40;96171.00;;;;5133885;28;20484;-82
2022/02/15 00:11:47;;;;;;;10.57;4.90;;;-2.80;99.90;-2.40;96160.00;;;;5131388;28;20860;-82
2022/02/15 00:14:17;;;;;;;10.60;5.73;;;-2.70;99.90;-2.40;96177.00;;;;5133624;28;20520;-82
2022/02/15 00:17:06;;;;;;;7.33;5.73;;;-2.60;99.90;-2.50;96169.00;;;;5133362;28;20438;-84
2022/02/15 00:19:34;;;;;;;7.20;5.03;;;-2.60;99.90;-2.80;96170.00;;;;5124092;28;20516;-81
2022/02/15 00:22:04;;;;;;;7.43;5.17;;;-2.70;99.90;-3.30;96166.00;;;;5127491;27;20587;-81
2022/02/15 00:24:33;;;;;;;6.90;3.67;;;-2.80;99.90;-3.30;96160.00;;;;5137710;27;20946;-80
2022/02/15 00:27:01;;;;;;;6.20;4.47;;;-2.90;99.90;-3.30;96168.00;;;;5137161;27;20432;-82
2022/02/15 00:29:30;;;;;;;5.60;4.50;;;-3.00;99.90;-3.10;96170.00;;;;5137027;27;20825;-80
2022/02/15 00:31:59;;;;;;;2.80;2.20;;;-3.00;99.90;-3.70;96159.00;;;;5134943;27;20481;-79
2022/02/15 00:34:29;;;;;;;8.17;4.33;;;-3.10;99.90;-3.20;96169.00;;;;5124342;27;20574;-82
2022/02/15 00:36:57;;;;;;;7.63;5.90;;;-3.10;99.90;-2.80;96171.00;;;;5136800;27;20526;-82
2022/02/15 00:39:26;;;;;;;4.70;4.20;;;-3.00;99.90;-2.70;96172.00;;;;5136592;27;20591;-81
2022/02/15 00:41:55;;;;;;;4.53;4.13;;;-3.00;99.90;-2.90;96176.00;;;;5134345;27;20485;-81
2022/02/15 00:44:26;;;;;;;5.43;4.93;;;-2.90;99.90;-2.80;96164.00;;;;5136361;27;20456;-84
2022/02/15 00:46:55;;;;;;;4.60;4.17;;;-2.90;99.90;-2.50;96167.00;;;;5137076;27;20462;-83
2022/02/15 00:49:24;;;;;;;6.90;4.73;;;-2.80;99.90;-2.30;96163.00;;;;5136363;27;20475;-82
2022/02/15 00:51:55;;;;;;;8.70;5.27;;;-2.70;99.90;-2.50;96163.00;;;;5131412;27;20490;-83
2022/02/15 00:54:24;;;;;;;7.40;4.57;;;-2.60;99.90;-2.80;96163.00;;;;5127304;27;20451;-83
2022/02/15 00:56:53;;;;;;;7.47;5.03;;;-1.90;99.90;-2.60;96161.00;;;;5135713;27;20558;-83
2022/02/15 00:59:21;;;;;;;7.87;5.20;;;-2.70;99.90;-2.30;96177.00;;;;5139759;27;20459;-82
2022/02/15 01:01:50;;;;;;;8.33;5.33;;;-1.70;99.90;-2.20;96172.00;;;;5138558;27;20442;-83
2022/02/15 01:04:19;;;;;;;4.20;3.73;;;-2.60;99.90;-2.30;96172.00;;;;5140347;27;20526;-83
2022/02/15 01:06:48;;;;;;;6.37;5.00;;;-2.60;99.90;-2.40;96165.00;;;;5139503;27;20440;-82
2022/02/15 01:09:18;;;;;;;7.50;4.27;;;-2.50;99.90;-2.50;96169.00;;;;5138284;27;20935;-83
2022/02/15 01:11:47;;;;;;;8.23;4.30;;;-2.60;99.90;-3.10;96149.00;;;;5134594;27;20500;-82
2022/02/15 01:14:18;;;;;;;4.40;3.63;;;-2.60;99.90;-3.30;96143.00;;;;5136560;27;20496;-82
2022/02/15 01:16:47;;;;;;;3.20;2.83;;;-2.80;99.90;-3.40;96151.00;;;;5135715;27;20606;-83
2022/02/15 01:19:15;;;;;;;6.60;4.33;;;-2.90;99.90;-3.20;96145.00;;;;5122747;27;20436;-82
2022/02/15 01:22:05;;;;;;;6.57;4.03;;;-3.00;99.90;-3.50;96145.00;;;;5125550;27;20422;-83
2022/02/15 01:24:35;;;;;;;2.77;2.40;;;-3.10;99.90;-3.50;96147.00;;;;5136171;27;20451;-81
2022/02/15 01:27:05;;;;;;;1.53;1.50;;;-2.00;99.90;-3.80;96138.00;;;;5134923;27;20827;-82
2022/02/15 01:29:34;;;;;;;4.00;3.63;;;-3.20;99.90;-3.70;96139.00;;;;5135756;27;20451;-82
2022/02/15 01:32:04;;;;;;;5.37;3.97;;;-3.20;99.90;-3.90;96146.00;;;;5134348;27;20834;-82
2022/02/15 01:34:33;;;;;;;8.67;3.73;;;-2.70;99.90;-3.80;96157.00;;;;5131391;27;20490;-82
2022/02/15 01:37:02;;;;;;;8.97;4.40;;;-3.30;99.90;-3.50;96146.00;;;;5130618;27;20503;-82
2022/02/15 01:39:31;;;;;;;5.70;5.07;;;-3.30;99.90;-3.50;96146.00;;;;5137593;27;20521;-82
2022/02/15 01:42:01;;;;;;;5.70;4.30;;;-3.30;99.90;-3.20;96145.00;;;;5135944;27;20424;-83
2022/02/15 01:44:32;;;;;;;1.10;1.10;;;-3.30;99.90;-3.80;96136.00;;;;5134771;27;20444;-83
2022/02/15 01:47:01;;;;;;;2.50;1.90;;;-3.20;99.90;-3.80;96150.00;;;;5136253;27;20423;-82
2022/02/15 01:49:30;;;;;;;10.93;4.90;;;-3.30;99.90;-3.80;96150.00;;;;5135400;27;20985;-83
2022/02/15 01:51:58;;;;;;;6.13;4.73;;;-3.30;99.90;-3.60;96137.00;;;;5136262;27;20438;-81
2022/02/15 01:54:27;;;;;;;5.67;3.50;;;-3.30;99.90;-3.60;96143.00;;;;5137234;27;20503;-80
2022/02/15 01:56:56;;;;;;;5.83;4.97;;;-3.30;99.90;-3.40;96126.00;;;;5135302;27;20482;-82
2022/02/15 01:59:27;;;;;;;10.37;5.27;;;-3.30;99.90;-3.20;96137.00;;;;5134312;27;20427;-83
2022/02/15 02:01:55;;;;;;;3.93;3.33;;;-3.20;99.90;-3.40;96139.00;;;;5130099;27;20435;-82
2022/02/15 02:07:10;;;;;;;3.33;3.03;;;-3.20;99.90;-3.70;96148.00;;;;5135967;27;20427;-83
2022/02/15 02:09:39;;;;;;;2.73;1.90;;;-3.30;99.90;-4.00;96137.00;;;;5136474;27;20526;-82
2022/02/15 02:12:09;;;;;;;4.53;3.37;;;-3.30;99.90;-3.80;96135.00;;;;5133470;27;20503;-82
2022/02/15 02:14:39;;;;;;;7.57;3.50;;;-3.40;99.90;-3.50;96147.00;;;;5136815;27;20452;-82
2022/02/15 02:17:08;;;;;;;5.13;4.10;;;-3.30;99.90;-3.30;96139.00;;;;5137285;27;20502;-82
2022/02/15 02:19:37;;;;;;;5.87;4.60;;;-3.40;99.90;-3.30;96139.00;;;;5136082;27;20454;-82
2022/02/15 02:22:07;;;;;;;4.97;2.93;;;-3.30;99.90;-3.40;96140.00;;;;5134457;27;20431;-82
2022/02/15 02:24:36;;;;;;;3.77;2.80;;;-3.30;99.90;-3.40;96139.00;;;;5136247;27;20479;-81
2022/02/15 02:27:05;;;;;;;4.53;3.73;;;-3.20;99.90;-3.20;96140.00;;;;5136253;27;20447;-83
2022/02/15 02:29:34;;;;;;;7.60;4.40;;;-3.20;99.90;-2.90;96136.00;;;;5135615;27;20481;-83
2022/02/15 02:32:03;;;;;;;6.33;4.50;;;-3.20;99.90;-3.00;96131.00;;;;5135938;27;20507;-82
2022/02/15 02:34:31;;;;;;;6.00;4.30;;;-3.20;99.90;-3.30;96125.00;;;;5131491;27;20587;-81
2022/02/15 02:37:00;;;;;;;4.30;2.97;;;-3.20;99.90;-3.90;96132.00;;;;5129086;27;20479;-82
2022/02/15 02:39:30;;;;;;;3.70;3.40;;;-3.20;99.90;-3.80;96125.00;;;;5135784;27;20442;-81
2022/02/15 02:41:59;;;;;;;5.73;5.03;;;-3.30;99.90;-3.50;96132.00;;;;5136005;27;20435;-81
2022/02/15 02:44:28;;;;;;;5.63;3.77;;;-3.40;99.90;-3.50;96129.00;;;;5135824;27;20519;-82
2022/02/15 02:46:56;;;;;;;4.37;3.97;;;-2.00;99.90;-3.30;96129.00;;;;5137244;27;20438;-82
2022/02/15 02:49:25;;;;;;;3.90;3.20;;;-3.30;99.90;-3.50;96116.00;;;;5136985;27;20443;-81
2022/02/15 02:51:54;;;;;;;6.43;3.47;;;-3.10;99.90;-3.70;96125.00;;;;5141704;27;20443;-83
2022/02/15 02:54:24;;;;;;;4.93;3.70;;;-3.00;99.90;-3.70;96124.00;;;;5141964;27;20490;-80
2022/02/15 02:56:55;;;;;;;6.17;3.00;;;-3.30;99.90;-3.60;96126.00;;;;5142420;27;20656;-83
2022/02/15 02:59:24;;;;;;;3.90;3.50;;;-3.30;99.90;-3.70;96121.00;;;;5142993;27;20423;-81
2022/02/15 03:01:52;;;;;;;2.40;2.20;;;-3.40;99.90;-3.80;96127.00;;;;5139302;27;20444;-81
2022/02/15 03:04:21;;;;;;;4.40;3.97;;;-3.30;99.90;-3.90;96132.00;;;;5149156;27;20477;-81
2022/02/15 03:06:50;;;;;;;9.87;5.63;;;-2.80;99.90;-3.60;96137.00;;;;5150832;27;20460;-81
2022/02/15 03:09:19;;;;;;;4.20;3.80;;;-3.40;99.90;-3.40;96137.00;;;;5150486;28;20647;-82
2022/02/15 03:11:49;;;;;;;8.33;5.10;;;-3.30;99.90;-3.30;96141.00;;;;5149351;28;20453;-81
2022/02/15 03:14:19;;;;;;;10.53;5.27;;;-3.30;99.90;-3.20;96134.00;;;;5149912;28;20482;-81
2022/02/15 03:16:48;;;;;;;8.60;5.90;;;-3.30;99.90;-3.10;96150.00;;;;5149295;28;20460;-82
2022/02/15 03:19:19;;;;;;;8.57;5.50;;;-3.20;99.90;-2.90;96142.00;;;;5145720;28;20439;-83
2022/02/15 03:21:47;;;;;;;11.50;4.83;;;-3.20;99.90;-3.20;96144.00;;;;5145967;28;20508;-82
2022/02/15 03:24:16;;;;;;;8.40;5.30;;;-3.20;99.90;-3.00;96156.00;;;;5148632;28;20459;-81
2022/02/15 03:26:45;;;;;;;5.80;4.57;;;-2.60;99.90;-3.00;96147.00;;;;5150205;28;20439;-82
2022/02/15 03:29:14;;;;;;;6.17;4.70;;;-3.20;99.90;-3.00;96137.00;;;;5148947;28;20420;-84
2022/02/15 03:31:45;;;;;;;11.10;4.77;;;-3.20;99.90;-3.00;96144.00;;;;5133633;28;20443;-82
2022/02/15 03:34:14;;;;;;;7.23;5.37;;;-3.10;99.90;-3.50;96145.00;;;;5131770;28;20606;-83
2022/02/15 03:37:01;;;;;;;10.37;4.43;;;-3.20;99.90;-3.20;96141.00;;;;5126381;28;20473;-83
2022/02/15 03:39:30;;;;;;;3.47;2.30;;;-3.20;99.90;-3.50;96149.00;;;;5118999;28;20434;-82
2022/02/15 03:44:45;;;;;;;4.90;3.60;;;-3.20;99.90;-3.40;96154.00;;;;5135024;28;20479;-83
2022/02/15 03:47:15;;;;;;;4.13;3.57;;;-2.20;99.90;-3.40;96158.00;;;;5132515;28;20452;-82
2022/02/15 03:49:44;;;;;;;8.23;3.97;;;-3.20;99.90;-3.30;96159.00;;;;5131337;28;20438;-82
2022/02/15 03:52:13;;;;;;;7.73;4.43;;;-3.10;99.90;-3.20;96162.00;;;;5131582;28;20427;-83
2022/02/15 03:54:42;;;;;;;4.70;3.77;;;-3.10;99.90;-3.00;96167.00;;;;5132704;28;20451;-83
2022/02/15 03:57:11;;;;;;;3.93;3.63;;;-3.00;99.90;-3.30;96161.00;;;;5133998;27;21067;-82
2022/02/15 03:59:39;;;;;;;3.80;3.50;;;-3.00;99.90;-3.10;96164.00;;;;5134779;27;20499;-82
2022/02/15 04:02:09;;;;;;;4.63;3.53;;;-3.00;99.90;-2.90;96165.00;;;;5122003;27;20553;-82
2022/02/15 04:04:39;;;;;;;5.53;3.63;;;-2.90;99.90;-2.90;96165.00;;;;5136685;27;20451;-83
2022/02/15 04:07:08;;;;;;;5.83;4.53;;;-2.90;99.90;-2.70;96167.00;;;;5136782;27;20428;-83
2022/02/15 04:09:37;;;;;;;1.87;1.77;;;-2.80;99.90;-3.00;96166.00;;;;5136707;27;20455;-81
2022/02/15 04:12:07;;;;;;;5.37;3.60;;;-2.70;99.90;-2.80;96163.00;;;;5135038;27;20438;-83
2022/02/15 04:14:36;;;;;;;5.90;3.90;;;-2.70;99.90;-2.60;96172.00;;;;5136924;27;20496;-82
2022/02/15 04:17:06;;;;;;;5.00;2.67;;;-2.60;99.90;-2.70;96163.00;;;;5137735;27;20475;-83
2022/02/15 04:19:35;;;;;;;9.23;4.47;;;-2.10;99.90;-2.40;96171.00;;;;5140931;27;20522;-83
2022/02/15 04:22:05;;;;;;;8.63;5.80;;;-2.50;99.90;-2.40;96169.00;;;;5140423;27;20524;-82
2022/02/15 04:24:34;;;;;;;9.07;4.83;;;-2.10;99.90;-2.10;96177.00;;;;5141531;27;20451;-82
2022/02/15 04:27:03;;;;;;;10.23;4.07;;;-2.40;99.90;-2.50;96171.00;;;;5137303;27;20473;-82
2022/02/15 04:29:32;;;;;;;4.83;3.10;;;-2.40;99.90;-2.70;96169.00;;;;5134393;27;20435;-82
2022/02/15 04:32:01;;;;;;;3.30;3.03;;;-2.40;99.90;-2.80;96174.00;;;;5128242;27;20444;-80
2022/02/15 04:34:30;;;;;;;3.40;3.10;;;-1.60;99.90;-2.90;96171.00;;;;5136164;27;20509;-80
2022/02/15 04:36:58;;;;;;;5.43;4.60;;;-2.60;99.90;-2.80;96173.00;;;;5130147;27;20467;-81
2022/02/15 04:39:28;;;;;;;10.53;5.70;;;-2.40;99.90;-2.50;96176.00;;;;5130831;27;20580;-82
2022/02/15 04:41:57;;;;;;;4.87;3.90;;;-2.60;99.90;-2.30;96167.00;;;;5149326;27;20543;-82
2022/02/15 04:44:26;;;;;;;4.27;3.90;;;-2.50;99.90;-2.60;96186.00;;;;5145658;27;20446;-82
2022/02/15 04:46:55;;;;;;;3.77;3.33;;;-2.50;99.90;-2.60;96172.00;;;;5138688;27;20522;-83
2022/02/15 04:49:24;;;;;;;3.43;3.10;;;-2.50;99.90;-2.50;96186.00;;;;5138312;27;20424;-82
2022/02/15 04:51:53;;;;;;;4.47;4.03;;;-2.40;99.90;-2.30;96186.00;;;;5136888;27;20485;-83
2022/02/15 04:54:22;;;;;;;13.63;4.10;;;-2.30;99.90;-1.90;96196.00;;;;5139537;27;20959;-82
2022/02/15 04:56:53;;;;;;;4.37;3.97;;;-2.20;99.90;-1.80;96195.00;;;;5137455;27;20476;-83
2022/02/15 04:59:22;;;;;;;9.03;4.80;;;-2.20;99.90;-2.00;96197.00;;;;5139109;27;20527;-83
2022/02/15 05:01:51;;;;;;;6.67;4.10;;;-2.20;99.90;-1.80;96202.00;;;;5133198;27;20871;-81
2022/02/15 05:07:06;;;;;;;5.73;3.77;;;-2.10;99.90;-2.60;96198.00;;;;5138363;27;20428;-83
2022/02/15 05:09:35;;;;;;;5.77;4.17;;;-2.10;99.90;-2.50;96197.00;;;;5135939;27;20444;-83
2022/02/15 05:12:06;;;;;;;5.33;2.47;;;-1.80;99.90;-2.40;96209.00;;;;5127450;27;20492;-81
2022/02/15 05:14:35;;;;;;;5.23;4.13;;;-2.20;99.90;-2.30;96200.00;;;;5124601;27;20462;-82
2022/02/15 05:17:04;;;;;;;8.77;3.83;;;-0.80;99.90;-2.20;96215.00;;;;5137080;27;20484;-81
2022/02/15 05:19:34;;;;;;;4.87;4.07;;;-2.20;99.90;-2.00;96217.00;;;;5136964;27;20436;-81
2022/02/15 05:22:03;;;;;;;11.97;5.07;;;-2.10;99.90;-1.50;96223.00;;;;5135981;27;20439;-82
2022/02/15 05:24:32;;;;;;;8.80;5.10;;;-2.00;99.90;-1.40;96229.00;;;;5133801;27;20455;-80
2022/02/15 05:27:01;;;;;;;7.07;4.13;;;-1.90;99.90;-1.40;96223.00;;;;5126719;27;20446;-82
2022/02/15 05:29:30;;;;;;;9.83;4.33;;;-1.80;99.90;-1.20;96227.00;;;;5129695;27;20534;-82
2022/02/15 05:31:59;;;;;;;8.07;4.37;;;-1.60;99.90;-1.20;96222.00;;;;5127547;27;20428;-82
2022/02/15 05:34:28;;;;;;;9.87;3.93;;;-1.60;99.90;-1.40;96219.00;;;;5118285;27;20464;-83
2022/02/15 05:36:57;;;;;;;4.27;2.97;;;-1.00;99.90;-2.00;96219.00;;;;5128198;27;20442;-82
2022/02/15 05:39:26;;;;;;;4.70;3.63;;;-1.60;99.90;-2.10;96217.00;;;;5134255;27;20497;-82
2022/02/15 05:41:56;;;;;;;4.63;2.67;;;-1.70;99.90;-2.10;96219.00;;;;5131319;27;20430;-82
2022/02/15 05:44:26;;;;;;;10.57;5.47;;;-1.80;99.90;-1.60;96233.00;;;;5131543;27;20460;-81
2022/02/15 05:46:56;;;;;;;13.23;5.23;;;-1.80;99.90;-1.40;96227.00;;;;5127169;27;20436;-82
2022/02/15 05:49:24;;;;;;;10.27;5.63;;;-1.70;99.90;-1.40;96220.00;;;;5134056;27;20439;-82
2022/02/15 05:51:54;;;;;;;9.80;5.67;;;-1.70;99.90;-1.90;96220.00;;;;5133312;27;20420;-82
2022/02/15 05:54:23;;;;;;;9.87;5.53;;;-1.70;99.90;-2.00;96229.00;;;;5133288;27;20439;-82
2022/02/15 05:56:52;;;;;;;15.33;7.67;;;-1.70;99.90;-1.80;96241.00;;;;5134377;27;20492;-82
2022/02/15 05:59:21;;;;;;;13.37;4.93;;;-1.70;99.90;-1.70;96221.00;;;;5134372;27;20574;-82
2022/02/15 06:01:49;;;;;;;8.47;4.30;;;-1.70;99.90;-1.70;96230.00;;;;5131463;27;20455;-82
2022/02/15 06:04:20;;;;;;;5.63;4.10;;;-1.70;99.90;-1.80;96240.00;;;;5125822;27;20456;-82
2022/02/15 06:06:48;;;;;;;14.57;6.63;;;-1.20;99.90;-1.80;96241.00;;;;5134206;27;20436;-82
2022/02/15 06:09:17;;;;;;;7.03;5.30;;;-1.70;99.90;-1.40;96248.00;;;;5126923;27;20448;-82
2022/02/15 06:11:46;;;;;;;12.03;6.87;;;-1.70;99.90;-1.50;96243.00;;;;5122048;27;20496;-82
2022/02/15 06:14:15;;;;;;;13.40;6.07;;;-1.70;99.90;-1.70;96228.00;;;;5119751;27;20452;-82
2022/02/15 06:16:43;;;;;;;8.97;5.30;;;-1.70;99.90;-1.60;96248.00;;;;5137499;27;20432;-82
2022/02/15 06:19:12;;;;;;;5.57;4.13;;;-1.60;99.90;-1.80;96241.00;;;;5132221;27;20490;-82
2022/02/15 06:21:42;;;;;;;9.23;4.60;;;-1.70;99.90;-1.80;96240.00;;;;5133040;27;20428;-80
2022/02/15 06:24:11;;;;;;;4.80;3.50;;;-1.70;99.90;-1.50;96246.00;;;;5133511;27;20452;-82
2022/02/15 06:27:01;;;;;;;6.37;3.43;;;-1.70;99.90;-1.30;96258.00;;;;5134476;27;20430;-82
2022/02/15 06:29:30;;;;;;;8.93;3.97;;;-1.60;99.90;-1.40;96239.00;;;;5123912;27;20435;-82
2022/02/15 06:32:00;;;;;;;9.60;4.43;;;-1.50;99.90;-1.20;96248.00;;;;5125224;27;20424;-82
2022/02/15 06:34:28;;;;;;;7.00;4.93;;;-1.40;99.90;-0.90;96248.00;;;;5127796;27;20463;-83
2022/02/15 06:36:58;;;;;;;9.67;4.10;;;-0.40;99.90;-0.80;96247.00;;;;5125627;27;20428;-83
2022/02/15 06:39:27;;;;;;;10.30;5.50;;;-1.20;99.90;-1.00;96250.00;;;;5128647;27;20556;-82
2022/02/15 06:41:56;;;;;;;19.57;5.50;;;-1.20;99.90;-1.20;96246.00;;;;5131872;27;20424;-82
2022/02/15 06:44:25;;;;;;;11.70;6.67;;;-0.70;99.90;-0.90;96266.00;;;;5126519;27;20456;-83
2022/02/15 06:46:54;;;;;;;8.77;4.73;;;-1.10;99.90;-0.90;96253.00;;;;5130760;27;20427;-81
2022/02/15 06:49:22;;;;;;;4.53;3.23;;;-1.10;99.90;-1.20;96251.00;;;;5132716;27;20420;-81
2022/02/15 06:51:51;;;;;;;3.33;3.03;;;-1.00;99.90;-1.30;96253.00;;;;5141557;27;20444;-82
2022/02/15 06:54:21;;;;;;;3.10;2.73;;;-1.10;99.90;-1.40;96248.00;;;;5137643;27;20459;-81
2022/02/15 06:56:50;;;;;;;4.70;3.93;;;-1.10;99.90;-1.10;96255.00;;;;5132228;27;20534;-83
2022/02/15 06:59:19;;;;;;;4.57;3.43;;;-1.10;99.90;-0.80;96263.00;;;;5132045;27;20498;-81
2022/02/15 07:01:47;;;;;;;5.80;3.87;;;-1.00;99.90;-0.40;96271.00;;;;5131096;27;20447;-81
2022/02/15 07:04:16;;;;;;;7.33;4.00;;;-0.90;99.90;-0.90;96264.00;;;;5132063;27;20447;-82
2022/02/15 07:06:45;;;;;;;4.40;3.20;;;-0.90;99.90;-1.50;96253.00;;;;5118718;27;20460;-81
2022/02/15 07:09:13;;;;;;;4.17;3.50;;;-0.90;99.90;-1.00;96270.00;;;;5117601;27;20455;-82
2022/02/15 07:11:44;;;;;;;7.33;4.57;;;-0.90;99.90;-0.60;96283.00;;;;5116150;27;20459;-82
2022/02/15 07:14:12;;;;;;;7.47;4.73;;;-0.90;99.90;0.00;96277.00;;;;5115874;27;20468;-82
2022/02/15 07:16:43;;;;;;;8.83;4.43;;;-0.40;99.90;0.20;96281.00;;;;5114020;27;20573;-79
2022/02/15 07:19:12;;;;;;;15.87;5.20;;;-0.60;99.90;0.00;96268.00;;;;5114197;27;20494;-81
2022/02/15 07:21:42;;;;;;;7.40;4.97;;;-0.40;99.90;0.20;96273.00;;;;5115976;27;20554;-81
2022/02/15 07:24:11;;;;;;;20.97;8.80;;;-0.40;99.90;0.00;96288.00;;;;5122628;27;20585;-81
2022/02/15 07:26:40;;;;;;;11.53;7.27;;;-0.20;99.90;-0.60;96279.00;;;;5122240;27;20463;-81
2022/02/15 07:29:28;;;;;;;7.43;4.17;;;-0.20;99.90;-0.50;96267.00;;;;5120739;27;20846;-82
2022/02/15 07:32:23;;;;;;;7.53;3.77;;;-0.30;99.90;0.10;96278.00;;;;5121998;27;20436;-82
2022/02/15 07:35:12;;;;;;;5.93;4.40;;;-0.20;99.90;0.70;96288.00;;;;5124795;27;20468;-83
2022/02/15 07:38:01;;;;;;;5.73;4.83;;;-0.20;99.90;0.60;96292.00;;;;5120958;27;20443;-81
2022/02/15 07:40:50;;;;;;;9.80;6.53;;;0.10;99.90;0.90;96290.00;;;;5122335;27;20455;-82
2022/02/15 07:43:39;;;;;;;15.33;5.03;;;0.30;99.90;1.50;96294.00;;;;5132254;27;20455;-80
2022/02/15 07:46:30;;;;;;;10.83;4.70;;;0.50;99.90;1.70;96300.00;;;;5132018;27;20559;-82
2022/02/15 07:49:18;;;;;;;7.83;4.17;;;0.80;99.90;2.00;96300.00;;;;5122896;27;20452;-81
2022/02/15 07:52:08;;;;;;;8.00;4.40;;;1.10;99.90;2.10;96300.00;;;;5119822;27;20436;-82
2022/02/15 07:54:57;;;;;;;5.03;3.23;;;1.30;99.90;2.10;96298.00;;;;5123987;27;20475;-83
2022/02/15 07:57:46;;;;;;;6.43;4.77;;;1.50;99.90;2.10;96300.00;;;;5107326;27;20458;-81
2022/02/15 08:00:35;;;;;;;13.20;4.40;;;1.60;99.90;2.50;96306.00;;;;5110201;27;20845;-82
2022/02/15 08:03:25;;;;;;;5.30;3.93;;;1.70;99.90;2.50;96305.00;;;;5107092;27;20441;-83
2022/02/15 08:06:14;;;;;;;7.23;5.07;;;1.80;99.90;2.30;96302.00;;;;5109700;27;20474;-83
2022/02/15 08:09:03;;;;;;;9.93;5.33;;;1.90;99.90;2.50;96306.00;;;;5108198;27;21783;-83
2022/02/15 08:11:55;;;;;;;9.37;5.13;;;2.00;99.90;3.10;96312.00;;;;5107702;27;20439;-82
2022/02/15 08:14:44;;;;;;;5.27;4.30;;;2.10;99.90;3.40;96309.00;;;;5105838;27;21002;-82
2022/02/15 08:17:33;;;;;;;6.13;4.13;;;2.30;99.90;3.50;96312.00;;;;5108297;27;20452;-82
2022/02/15 08:20:23;;;;;;;7.93;4.27;;;2.40;99.90;3.60;96312.00;;;;5105800;27;20475;-82
2022/02/15 08:23:12;;;;;;;7.17;4.27;;;2.60;99.90;4.00;96314.00;;;;5111082;27;20455;-81
2022/02/15 08:26:01;;;;;;;9.23;4.90;;;2.80;99.90;4.10;96315.00;;;;5119386;27;20431;-82
2022/02/15 08:28:50;;;;;;;10.87;4.43;;;3.00;99.90;4.20;96317.00;;;;5108199;27;20436;-83
2022/02/15 08:31:39;;;;;;;8.57;5.83;;;3.10;99.90;4.40;96316.00;;;;5113598;27;20474;-83
2022/02/15 08:34:27;;;;;;;7.63;4.93;;;3.30;99.90;4.40;96309.00;;;;5116036;27;20463;-83
2022/02/15 08:37:18;;;;;;;5.10;3.93;;;3.50;99.90;4.60;96313.00;;;;5105456;27;20441;-81
2022/02/15 08:40:09;;;;;;;13.83;4.97;;;3.60;99.90;4.80;96319.00;;;;5102015;27;20473;-81
2022/02/15 08:43:00;;;;;;;15.87;5.20;;;3.70;99.90;4.90;96314.00;;;;5106473;27;20977;-83
2022/02/15 08:45:49;;;;;;;7.57;3.70;;;3.90;99.90;4.70;96313.00;;;;5110133;27;20455;-82
2022/02/15 08:48:39;;;;;;;7.30;4.43;;;4.10;99.60;4.80;96312.00;;;;5117274;27;20968;-84
2022/02/15 08:51:29;;;;;;;3.73;3.37;;;4.20;98.30;5.00;96321.00;;;;5111964;27;20435;-81
2022/02/15 08:54:19;;;;;;;9.20;4.10;;;4.30;97.30;5.50;96332.00;;;;5106742;27;20839;-84
2022/02/15 08:57:09;;;;;;;8.83;4.53;;;4.50;96.80;6.00;96333.00;;;;5110180;27;20211;-83
2022/02/15 08:59:58;;;;;;;7.43;3.80;;;4.70;96.80;6.10;96335.00;;;;5111852;27;20465;-85
2022/02/15 09:02:47;;;;;;;5.87;4.20;;;4.80;96.10;6.30;96331.00;;;;5106295;27;20210;-83
2022/02/15 09:05:36;;;;;;;7.77;3.70;;;5.00;95.90;6.40;96324.00;;;;5119435;27;20226;-83
2022/02/15 09:08:24;;;;;;;8.00;4.33;;;5.20;94.60;6.40;96323.00;;;;5114817;27;20206;-81
2022/02/15 09:11:15;;;;;;;5.07;4.20;;;5.40;93.00;6.40;96311.00;;;;5107017;27;20205;-84
2022/02/15 09:14:04;;;;;;;10.97;4.00;;;5.50;92.00;6.50;96319.00;;;;5102929;27;20227;-81
2022/02/15 09:16:53;;;;;;;6.33;3.60;;;5.60;91.70;6.50;96320.00;;;;5098403;27;20221;-84
2022/02/15 09:19:42;;;;;;;7.63;3.50;;;5.70;91.00;7.00;96324.00;;;;5115990;27;20230;-82
2022/02/15 09:22:31;;;;;;;7.70;4.17;;;5.90;90.90;7.20;96331.00;;;;5122870;27;20209;-82
2022/02/15 09:25:19;;;;;;;5.47;4.17;;;6.10;89.40;6.90;96318.00;;;;5118922;27;20237;-81
2022/02/15 09:28:10;;;;;;;7.47;3.57;;;6.30;87.70;7.70;96332.00;;;;5123994;27;20218;-81
2022/02/15 09:30:58;;;;;;;6.33;4.03;;;6.40;87.10;8.10;96321.00;;;;5125324;27;20593;-81
2022/02/15 09:33:52;;;;;;;9.00;4.17;;;6.70;86.40;8.20;96319.00;;;;5120357;27;20221;-82
2022/02/15 09:36:43;;;;;;;12.17;4.43;;;6.80;85.50;8.20;96336.00;;;;5128344;27;20202;-81
2022/02/15 09:39:32;;;;;;;15.67;4.87;;;7.00;84.20;7.90;96330.00;;;;5127228;27;20221;-81
2022/02/15 09:42:25;;;;;;;7.47;3.63;;;7.00;82.20;8.10;96327.00;;;;5123595;27;20748;-82
2022/02/15 09:45:19;;;;;;;7.40;4.07;;;7.10;81.80;8.10;96319.00;;;;5124133;27;20225;-82
2022/02/15 09:48:10;;;;;;;7.87;3.87;;;7.10;80.90;8.70;96324.00;;;;5127622;27;20498;-82
2022/02/15 09:51:00;;;;;;;10.27;4.03;;;7.20;81.40;8.30;96334.00;;;;5129309;27;20212;-82
2022/02/15 09:53:50;;;;;;;7.53;4.43;;;7.30;79.60;8.50;96323.00;;;;5131140;27;20239;-83
2022/02/15 09:56:42;;;;;;;6.93;3.53;;;7.50;78.80;9.20;96331.00;;;;5126625;27;20213;-83
2022/02/15 09:59:30;;;;;;;12.60;3.87;;;7.70;78.30;9.30;96336.00;;;;5125534;27;20797;-83
2022/02/15 10:02:25;;;;;;;7.63;3.63;;;7.90;76.90;9.60;96328.00;;;;5119175;27;20213;-82
2022/02/15 10:05:17;;;;;;;3.13;2.83;;;8.10;76.60;9.60;96326.00;;;;5125182;27;20210;-83
2022/02/15 10:08:09;;;;;;;6.07;3.53;;;8.30;75.30;10.00;96325.00;;;;5124188;27;20203;-82
2022/02/15 10:11:09;;;;;;;6.30;3.87;;;8.50;74.70;10.10;96323.00;;;;5125109;27;20270;-82
2022/02/15 10:13:58;;;;;;;13.63;4.23;;;8.80;73.00;10.40;96337.00;;;;5124200;27;20222;-81
2022/02/15 10:16:51;;;;;;;8.20;3.97;;;8.90;72.20;10.60;96327.00;;;;5112470;27;20202;-83
2022/02/15 10:19:43;;;;;;;5.57;3.40;;;9.10;71.00;10.10;96316.00;;;;5127952;27;20209;-81
2022/02/15 10:22:38;;;;;;;13.03;4.60;;;9.30;67.70;10.90;96323.00;;;;5122541;27;20222;-81
2022/02/15 10:25:36;;;;;;;6.87;3.23;;;9.40;68.40;11.00;96324.00;;;;5119673;27;20304;-81
2022/02/15 10:28:30;;;;;;;9.10;3.73;;;9.60;67.90;11.20;96324.00;;;;5119776;27;20221;-81
2022/02/15 10:31:19;;;;;;;7.50;3.90;;;9.80;67.50;11.70;96323.00;;;;5126932;27;20198;-82
2022/02/15 10:34:08;;;;;;;6.47;3.03;;;10.10;67.00;11.80;96321.00;;;;5128402;27;20283;-80
2022/02/15 10:37:02;;;;;;;5.57;3.23;;;10.30;64.80;12.40;96331.00;;;;5143484;27;20189;-81
2022/02/15 10:39:56;;;;;;;6.33;3.13;;;10.50;65.70;12.50;96328.00;;;;5136929;27;20198;-81
2022/02/15 10:42:54;;;;;;;6.43;3.60;;;10.80;64.40;12.60;96323.00;;;;5126698;27;20206;-82
2022/02/15 10:45:43;;;;;;;7.50;3.40;;;11.00;62.90;12.90;96340.00;;;;5140184;27;20204;-80
2022/02/15 10:48:33;;;;;;;8.70;3.53;;;11.30;62.40;12.40;96344.00;;;;5134965;27;20194;-83
2022/02/15 10:51:23;;;;;;;5.33;3.50;;;11.30;61.70;12.40;96343.00;;;;5122955;27;20209;-82
2022/02/15 10:54:21;;;;;;;6.00;3.60;;;11.30;61.90;12.10;96342.00;;;;5118081;27;20225;-82
2022/02/15 10:57:14;;;;;;;5.03;3.30;;;11.20;60.90;12.00;96338.00;;;;5122564;27;20217;-82
2022/02/15 11:00:09;;;;;;;5.07;3.00;;;11.10;60.70;12.20;96320.00;;;;5122174;27;20216;-81
2022/02/15 11:02:59;;;;;;;10.13;3.33;;;11.00;60.80;12.70;96315.00;;;;5120866;27;20713;-81
2022/02/15 11:05:49;;;;;;;12.07;4.23;;;11.10;61.50;14.10;96330.00;;;;5122689;27;21055;-82
2022/02/15 11:08:41;;;;;;;8.63;3.13;;;11.60;62.70;14.90;96318.00;;;;5109105;27;20633;-83
2022/02/15 11:11:47;;;;;;;13.47;4.10;;;12.30;61.40;15.20;96334.00;;;;5127028;27;20681;-81
2022/02/15 11:14:38;;;;;;;7.83;3.23;;;13.00;59.20;14.90;96340.00;;;;5122980;27;20222;-82
2022/02/15 11:17:28;;;;;;;9.27;3.90;;;13.40;57.70;14.50;96325.00;;;;5122930;27;20199;-81
2022/02/15 11:20:21;;;;;;;9.20;3.90;;;13.50;56.80;14.70;96338.00;;;;5125507;27;20698;-83
2022/02/15 11:23:19;;;;;;;6.70;3.43;;;13.60;56.60;16.20;96333.00;;;;5114412;27;20202;-82
2022/02/15 11:26:11;;;;;;;5.63;4.03;;;14.00;57.40;16.20;96331.00;;;;5120483;27;20681;-82
2022/02/15 11:29:04;;;;;;;7.43;2.90;;;14.40;56.20;16.80;96353.00;;;;5118146;27;20674;-82
2022/02/15 11:31:54;;;;;;;10.70;3.80;;;14.70;55.50;15.90;96348.00;;;;5117603;28;20236;-82
2022/02/15 11:34:48;;;;;;;8.67;3.70;;;14.80;54.50;15.80;96353.00;;;;5124756;27;20627;-82
2022/02/15 11:37:20;;;;;;;7.80;3.23;;;14.70;54.70;15.30;96360.00;;;;5132151;27;20198;-82
2022/02/15 11:40:02;;;;;;;3.80;2.97;;;14.60;54.50;14.70;96359.00;;;;5121685;27;20199;-82
2022/02/15 11:42:46;;;;;;;5.17;2.97;;;14.30;54.20;14.50;96367.00;;;;5125460;27;20213;-81
2022/02/15 11:45:26;;;;;;;5.67;2.93;;;13.90;53.90;14.00;96353.00;;;;5128587;27;20221;-82
2022/02/15 11:48:04;;;;;;;4.37;2.50;;;13.60;54.10;13.70;96349.00;;;;5120488;27;20199;-82